sensor_id;sensor_type;location;lat;lon;timestamp;pressure;altitude;pressure_sealevel;temperature;humidity
79461;BME280;68929;42.666;23.324;2023-07-08T00:00:20;94868.03;;;19.42;nan
79461;BME280;68929;42.666;23.324;2023-07-08T00:02:46;94846.59;;;19.37;nan
79461;BME280;68929;42.666;23.324;2023-07-08T00:05:13;94837.47;;;19.38;nan
79461;BME280;68929;42.666;23.324;2023-07-08T00:07:40;94847.09;;;19.34;nan
79461;BME280;68929;42.666;23.324;2023-07-08T00:10:17;94845.44;;;19.23;nan
79461;BME280;68929;42.666;23.324;2023-07-08T00:12:43;94836.59;;;19.23;nan
79461;BME280;68929;42.666;23.324;2023-07-08T00:15:10;94830.44;;;19.27;nan
79461;BME280;68929;42.666;23.324;2023-07-08T00:17:36;94822.38;;;19.22;nan
79461;BME280;68929;42.666;23.324;2023-07-08T00:20:31;94816.97;;;19.12;nan
79461;BME280;68929;42.666;23.324;2023-07-08T00:22:54;94824.78;;;19.19;nan
79461;BME280;68929;42.666;23.324;2023-07-08T00:25:19;94832.03;;;19.28;nan
79461;BME280;68929;42.666;23.324;2023-07-08T00:27:46;94828.47;;;19.07;nan
79461;BME280;68929;42.666;23.324;2023-07-08T00:30:20;94837.66;;;19.27;nan
79461;BME280;68929;42.666;23.324;2023-07-08T00:32:45;94826.47;;;19.35;nan
79461;BME280;68929;42.666;23.324;2023-07-08T00:35:11;94834.19;;;19.26;nan
79461;BME280;68929;42.666;23.324;2023-07-08T00:37:36;94832.47;;;19.05;nan
79461;BME280;68929;42.666;23.324;2023-07-08T00:40:13;94818.50;;;18.93;nan
79461;BME280;68929;42.666;23.324;2023-07-08T00:42:40;94806.41;;;18.90;nan
79461;BME280;68929;42.666;23.324;2023-07-08T00:45:24;94794.34;;;18.83;nan
79461;BME280;68929;42.666;23.324;2023-07-08T00:47:55;94823.03;;;18.92;nan
79461;BME280;68929;42.666;23.324;2023-07-08T00:50:21;94806.06;;;18.72;nan
79461;BME280;68929;42.666;23.324;2023-07-08T00:52:47;94803.13;;;18.73;nan
79461;BME280;68929;42.666;23.324;2023-07-08T00:55:13;94810.38;;;18.78;nan
79461;BME280;68929;42.666;23.324;2023-07-08T00:57:42;94801.75;;;18.66;nan
79461;BME280;68929;42.666;23.324;2023-07-08T01:00:14;94787.84;;;18.69;nan
79461;BME280;68929;42.666;23.324;2023-07-08T01:02:48;94781.91;;;18.62;nan
79461;BME280;68929;42.666;23.324;2023-07-08T01:05:22;94803.22;;;18.93;nan
79461;BME280;68929;42.666;23.324;2023-07-08T01:07:52;94798.34;;;18.80;nan
79461;BME280;68929;42.666;23.324;2023-07-08T01:10:24;94803.50;;;18.97;nan
79461;BME280;68929;42.666;23.324;2023-07-08T01:12:54;94798.19;;;19.07;nan
79461;BME280;68929;42.666;23.324;2023-07-08T01:15:23;94768.66;;;18.87;nan
79461;BME280;68929;42.666;23.324;2023-07-08T01:17:52;94798.16;;;18.97;nan
79461;BME280;68929;42.666;23.324;2023-07-08T01:20:19;94804.88;;;18.99;nan
79461;BME280;68929;42.666;23.324;2023-07-08T01:22:45;94791.66;;;18.83;nan
79461;BME280;68929;42.666;23.324;2023-07-08T01:25:11;94796.44;;;18.76;nan
79461;BME280;68929;42.666;23.324;2023-07-08T01:27:41;94797.09;;;19.03;nan
79461;BME280;68929;42.666;23.324;2023-07-08T01:30:11;94781.69;;;18.73;nan
79461;BME280;68929;42.666;23.324;2023-07-08T01:32:40;94794.31;;;18.78;nan
79461;BME280;68929;42.666;23.324;2023-07-08T01:35:09;94794.31;;;18.78;nan
79461;BME280;68929;42.666;23.324;2023-07-08T01:37:39;94766.47;;;18.79;nan
79461;BME280;68929;42.666;23.324;2023-07-08T01:42:45;94775.78;;;18.66;nan
79461;BME280;68929;42.666;23.324;2023-07-08T01:45:16;94790.00;;;18.72;nan
79461;BME280;68929;42.666;23.324;2023-07-08T01:47:44;94777.09;;;18.64;nan
79461;BME280;68929;42.666;23.324;2023-07-08T01:50:11;94750.78;;;18.51;nan
79461;BME280;68929;42.666;23.324;2023-07-08T01:52:37;94764.41;;;18.44;nan
79461;BME280;68929;42.666;23.324;2023-07-08T01:55:04;94760.72;;;18.50;nan
79461;BME280;68929;42.666;23.324;2023-07-08T01:57:29;94756.88;;;18.41;nan
79461;BME280;68929;42.666;23.324;2023-07-08T01:59:54;94757.59;;;18.31;nan
79461;BME280;68929;42.666;23.324;2023-07-08T02:02:20;94765.94;;;18.40;nan
79461;BME280;68929;42.666;23.324;2023-07-08T02:04:45;94750.16;;;18.33;nan
79461;BME280;68929;42.666;23.324;2023-07-08T02:07:10;94772.53;;;18.59;nan
79461;BME280;68929;42.666;23.324;2023-07-08T02:09:36;94749.88;;;18.35;nan
79461;BME280;68929;42.666;23.324;2023-07-08T02:12:01;94771.16;;;18.52;nan
79461;BME280;68929;42.666;23.324;2023-07-08T02:14:27;94792.13;;;18.65;nan
79461;BME280;68929;42.666;23.324;2023-07-08T02:16:52;94794.78;;;18.65;nan
79461;BME280;68929;42.666;23.324;2023-07-08T02:19:18;94773.19;;;18.40;nan
79461;BME280;68929;42.666;23.324;2023-07-08T02:21:44;94782.41;;;18.54;nan
79461;BME280;68929;42.666;23.324;2023-07-08T02:24:09;94805.97;;;18.52;nan
79461;BME280;68929;42.666;23.324;2023-07-08T02:26:35;94781.66;;;18.26;nan
79461;BME280;68929;42.666;23.324;2023-07-08T02:29:00;94784.94;;;18.33;nan
79461;BME280;68929;42.666;23.324;2023-07-08T02:31:26;94808.50;;;18.36;nan
79461;BME280;68929;42.666;23.324;2023-07-08T02:33:53;94792.88;;;18.23;nan
79461;BME280;68929;42.666;23.324;2023-07-08T02:36:19;94816.19;;;18.28;nan
79461;BME280;68929;42.666;23.324;2023-07-08T02:38:45;94796.09;;;18.25;nan
79461;BME280;68929;42.666;23.324;2023-07-08T02:41:10;94790.41;;;18.49;nan
79461;BME280;68929;42.666;23.324;2023-07-08T02:43:37;94814.09;;;18.67;nan
79461;BME280;68929;42.666;23.324;2023-07-08T02:46:02;94802.19;;;18.53;nan
79461;BME280;68929;42.666;23.324;2023-07-08T02:48:28;94816.13;;;18.55;nan
79461;BME280;68929;42.666;23.324;2023-07-08T02:51:01;94817.16;;;18.44;nan
79461;BME280;68929;42.666;23.324;2023-07-08T02:53:26;94832.69;;;18.47;nan
79461;BME280;68929;42.666;23.324;2023-07-08T02:55:52;94822.84;;;18.25;nan
79461;BME280;68929;42.666;23.324;2023-07-08T02:58:17;94833.13;;;18.38;nan
79461;BME280;68929;42.666;23.324;2023-07-08T03:00:42;94797.59;;;18.11;nan
79461;BME280;68929;42.666;23.324;2023-07-08T03:03:08;94825.81;;;18.24;nan
79461;BME280;68929;42.666;23.324;2023-07-08T03:05:33;94834.97;;;18.33;nan
79461;BME280;68929;42.666;23.324;2023-07-08T03:07:59;94818.59;;;18.29;nan
79461;BME280;68929;42.666;23.324;2023-07-08T03:10:24;94827.72;;;18.28;nan
79461;BME280;68929;42.666;23.324;2023-07-08T03:12:49;94830.66;;;18.32;nan
79461;BME280;68929;42.666;23.324;2023-07-08T03:15:15;94839.78;;;18.36;nan
79461;BME280;68929;42.666;23.324;2023-07-08T03:17:40;94811.16;;;18.36;nan
79461;BME280;68929;42.666;23.324;2023-07-08T03:20:07;94823.34;;;18.49;nan
79461;BME280;68929;42.666;23.324;2023-07-08T03:22:33;94818.09;;;18.32;nan
79461;BME280;68929;42.666;23.324;2023-07-08T03:24:59;94807.19;;;18.39;nan
79461;BME280;68929;42.666;23.324;2023-07-08T03:27:24;94814.00;;;18.57;nan
79461;BME280;68929;42.666;23.324;2023-07-08T03:29:49;94818.03;;;18.59;nan
79461;BME280;68929;42.666;23.324;2023-07-08T03:32:15;94835.03;;;18.80;nan
79461;BME280;68929;42.666;23.324;2023-07-08T03:34:40;94817.53;;;18.67;nan
79461;BME280;68929;42.666;23.324;2023-07-08T03:37:05;94820.13;;;18.94;nan
79461;BME280;68929;42.666;23.324;2023-07-08T03:39:31;94810.97;;;18.85;nan
79461;BME280;68929;42.666;23.324;2023-07-08T03:41:59;94809.78;;;18.66;nan
79461;BME280;68929;42.666;23.324;2023-07-08T03:44:25;94825.34;;;18.74;nan
79461;BME280;68929;42.666;23.324;2023-07-08T03:46:50;94829.22;;;18.93;nan
79461;BME280;68929;42.666;23.324;2023-07-08T03:49:19;94821.22;;;18.98;nan
79461;BME280;68929;42.666;23.324;2023-07-08T03:51:48;94825.53;;;19.04;nan
79461;BME280;68929;42.666;23.324;2023-07-08T03:54:14;94832.47;;;19.05;nan
79461;BME280;68929;42.666;23.324;2023-07-08T03:56:39;94829.78;;;19.05;nan
79461;BME280;68929;42.666;23.324;2023-07-08T03:59:05;94824.47;;;19.10;nan
79461;BME280;68929;42.666;23.324;2023-07-08T04:01:31;94818.09;;;19.26;nan
79461;BME280;68929;42.666;23.324;2023-07-08T04:03:57;94803.19;;;19.55;nan
79461;BME280;68929;42.666;23.324;2023-07-08T04:06:24;94796.81;;;19.76;nan
79461;BME280;68929;42.666;23.324;2023-07-08T04:08:50;94815.31;;;19.78;nan
79461;BME280;68929;42.666;23.324;2023-07-08T04:11:17;94793.84;;;19.78;nan
79461;BME280;68929;42.666;23.324;2023-07-08T04:13:43;94808.63;;;19.90;nan
79461;BME280;68929;42.666;23.324;2023-07-08T04:16:16;94806.19;;;19.79;nan
79461;BME280;68929;42.666;23.324;2023-07-08T04:18:42;94808.03;;;19.63;nan
79461;BME280;68929;42.666;23.324;2023-07-08T04:21:07;94818.25;;;19.66;nan
79461;BME280;68929;42.666;23.324;2023-07-08T04:23:33;94827.47;;;20.21;nan
79461;BME280;68929;42.666;23.324;2023-07-08T04:25:58;94811.88;;;20.23;nan
79461;BME280;68929;42.666;23.324;2023-07-08T04:28:24;94801.66;;;20.20;nan
79461;BME280;68929;42.666;23.324;2023-07-08T04:30:49;94827.44;;;20.61;nan
79461;BME280;68929;42.666;23.324;2023-07-08T04:33:15;94830.03;;;20.91;nan
79461;BME280;68929;42.666;23.324;2023-07-08T04:35:42;94811.56;;;20.59;nan
79461;BME280;68929;42.666;23.324;2023-07-08T04:38:23;94830.13;;;20.61;nan
79461;BME280;68929;42.666;23.324;2023-07-08T04:40:49;94843.78;;;20.14;nan
79461;BME280;68929;42.666;23.324;2023-07-08T04:43:16;94845.13;;;20.07;nan
79461;BME280;68929;42.666;23.324;2023-07-08T04:45:44;94834.97;;;20.44;nan
79461;BME280;68929;42.666;23.324;2023-07-08T04:48:14;94838.97;;;20.46;nan
79461;BME280;68929;42.666;23.324;2023-07-08T04:50:44;94829.59;;;20.24;nan
79461;BME280;68929;42.666;23.324;2023-07-08T04:53:10;94821.53;;;20.44;nan
79461;BME280;68929;42.666;23.324;2023-07-08T04:55:37;94834.59;;;20.91;nan
79461;BME280;68929;42.666;23.324;2023-07-08T04:58:05;94845.13;;;20.77;nan
79461;BME280;68929;42.666;23.324;2023-07-08T05:00:30;94836.25;;;20.82;nan
79461;BME280;68929;42.666;23.324;2023-07-08T05:02:56;94848.84;;;20.86;nan
79461;BME280;68929;42.666;23.324;2023-07-08T05:05:21;94851.88;;;20.54;nan
79461;BME280;68929;42.666;23.324;2023-07-08T05:07:47;94843.03;;;20.44;nan
79461;BME280;68929;42.666;23.324;2023-07-08T05:10:14;94862.88;;;20.48;nan
79461;BME280;68929;42.666;23.324;2023-07-08T05:12:40;94857.50;;;20.53;nan
79461;BME280;68929;42.666;23.324;2023-07-08T05:15:06;94846.75;;;20.58;nan
79461;BME280;68929;42.666;23.324;2023-07-08T05:17:31;94846.13;;;21.11;nan
79461;BME280;68929;42.666;23.324;2023-07-08T05:19:56;94852.84;;;20.99;nan
79461;BME280;68929;42.666;23.324;2023-07-08T05:22:26;94861.69;;;21.24;nan
79461;BME280;68929;42.666;23.324;2023-07-08T05:24:52;94857.97;;;21.05;nan
79461;BME280;68929;42.666;23.324;2023-07-08T05:27:21;94854.22;;;21.06;nan
79461;BME280;68929;42.666;23.324;2023-07-08T05:29:47;94857.16;;;21.74;nan
79461;BME280;68929;42.666;23.324;2023-07-08T05:32:13;94875.97;;;21.74;nan
79461;BME280;68929;42.666;23.324;2023-07-08T05:34:38;94858.53;;;21.66;nan
79461;BME280;68929;42.666;23.324;2023-07-08T05:37:04;94852.06;;;21.08;nan
79461;BME280;68929;42.666;23.324;2023-07-08T05:39:30;94870.84;;;21.18;nan
79461;BME280;68929;42.666;23.324;2023-07-08T05:41:56;94867.44;;;21.62;nan
79461;BME280;68929;42.666;23.324;2023-07-08T05:44:21;94870.41;;;21.60;nan
79461;BME280;68929;42.666;23.324;2023-07-08T05:46:47;94869.19;;;21.32;nan
79461;BME280;68929;42.666;23.324;2023-07-08T05:49:12;94874.06;;;21.20;nan
79461;BME280;68929;42.666;23.324;2023-07-08T05:51:38;94861.47;;;21.11;nan
79461;BME280;68929;42.666;23.324;2023-07-08T05:54:03;94869.78;;;21.09;nan
79461;BME280;68929;42.666;23.324;2023-07-08T05:56:28;94850.44;;;20.97;nan
79461;BME280;68929;42.666;23.324;2023-07-08T05:58:56;94875.69;;;21.16;nan
79461;BME280;68929;42.666;23.324;2023-07-08T06:01:21;94874.91;;;20.96;nan
79461;BME280;68929;42.666;23.324;2023-07-08T06:03:47;94862.81;;;20.98;nan
79461;BME280;68929;42.666;23.324;2023-07-08T06:06:12;94886.22;;;20.73;nan
79461;BME280;68929;42.666;23.324;2023-07-08T06:08:38;94895.63;;;20.70;nan
79461;BME280;68929;42.666;23.324;2023-07-08T06:11:04;94891.84;;;20.86;nan
79461;BME280;68929;42.666;23.324;2023-07-08T06:13:29;94891.88;;;20.56;nan
79461;BME280;68929;42.666;23.324;2023-07-08T06:15:54;94876.56;;;20.26;nan
79461;BME280;68929;42.666;23.324;2023-07-08T06:18:20;94899.94;;;20.21;nan
79461;BME280;68929;42.666;23.324;2023-07-08T06:20:56;94898.31;;;20.30;nan
79461;BME280;68929;42.666;23.324;2023-07-08T06:23:22;94903.69;;;20.50;nan
79461;BME280;68929;42.666;23.324;2023-07-08T06:25:48;94907.72;;;20.73;nan
79461;BME280;68929;42.666;23.324;2023-07-08T06:28:13;94909.06;;;20.50;nan
79461;BME280;68929;42.666;23.324;2023-07-08T06:30:39;94909.59;;;20.37;nan
79461;BME280;68929;42.666;23.324;2023-07-08T06:33:04;94896.97;;;20.27;nan
79461;BME280;68929;42.666;23.324;2023-07-08T06:35:30;94908.53;;;20.53;nan
79461;BME280;68929;42.666;23.324;2023-07-08T06:37:55;94905.28;;;20.76;nan
79461;BME280;68929;42.666;23.324;2023-07-08T06:40:26;94922.50;;;20.90;nan
79461;BME280;68929;42.666;23.324;2023-07-08T06:42:52;94907.44;;;20.79;nan
79461;BME280;68929;42.666;23.324;2023-07-08T06:45:17;94894.03;;;20.79;nan
79461;BME280;68929;42.666;23.324;2023-07-08T06:47:42;94910.13;;;20.89;nan
79461;BME280;68929;42.666;23.324;2023-07-08T06:50:12;94872.50;;;20.94;nan
79461;BME280;68929;42.666;23.324;2023-07-08T06:52:37;94902.03;;;20.99;nan
79461;BME280;68929;42.666;23.324;2023-07-08T06:55:06;94896.69;;;21.04;nan
79461;BME280;68929;42.666;23.324;2023-07-08T06:57:32;94901.50;;;20.97;nan
79461;BME280;68929;42.666;23.324;2023-07-08T06:59:57;94899.94;;;20.81;nan
79461;BME280;68929;42.666;23.324;2023-07-08T07:02:23;94897.75;;;20.98;nan
79461;BME280;68929;42.666;23.324;2023-07-08T07:04:51;94901.31;;;21.68;nan
79461;BME280;68929;42.666;23.324;2023-07-08T07:07:17;94888.50;;;21.44;nan
79461;BME280;68929;42.666;23.324;2023-07-08T07:09:42;94898.97;;;21.51;nan
79461;BME280;68929;42.666;23.324;2023-07-08T07:12:08;94894.31;;;21.67;nan
79461;BME280;68929;42.666;23.324;2023-07-08T07:14:33;94886.44;;;21.90;nan
79461;BME280;68929;42.666;23.324;2023-07-08T07:16:59;94908.53;;;21.77;nan
79461;BME280;68929;42.666;23.324;2023-07-08T07:19:24;94880.22;;;21.36;nan
79461;BME280;68929;42.666;23.324;2023-07-08T07:21:50;94897.56;;;21.64;nan
79461;BME280;68929;42.666;23.324;2023-07-08T07:24:15;94900.59;;;22.11;nan
79461;BME280;68929;42.666;23.324;2023-07-08T07:26:41;94909.94;;;22.18;nan
79461;BME280;68929;42.666;23.324;2023-07-08T07:29:06;94896.41;;;22.34;nan
79461;BME280;68929;42.666;23.324;2023-07-08T07:31:31;94887.09;;;22.50;nan
79461;BME280;68929;42.666;23.324;2023-07-08T07:33:59;94928.19;;;22.70;nan
79461;BME280;68929;42.666;23.324;2023-07-08T07:36:25;94934.06;;;22.77;nan
79461;BME280;68929;42.666;23.324;2023-07-08T07:38:51;94938.03;;;23.14;nan
79461;BME280;68929;42.666;23.324;2023-07-08T07:41:16;94920.78;;;23.15;nan
79461;BME280;68929;42.666;23.324;2023-07-08T07:43:41;94930.19;;;22.88;nan
79461;BME280;68929;42.666;23.324;2023-07-08T07:46:07;94935.31;;;22.51;nan
79461;BME280;68929;42.666;23.324;2023-07-08T07:48:33;94917.53;;;22.50;nan
79461;BME280;68929;42.666;23.324;2023-07-08T07:50:58;94929.31;;;22.64;nan
79461;BME280;68929;42.666;23.324;2023-07-08T07:53:24;94936.34;;;22.55;nan
79461;BME280;68929;42.666;23.324;2023-07-08T07:55:56;94925.66;;;22.45;nan
79461;BME280;68929;42.666;23.324;2023-07-08T07:58:22;94919.94;;;22.52;nan
79461;BME280;68929;42.666;23.324;2023-07-08T08:00:47;94925.59;;;22.89;nan
79461;BME280;68929;42.666;23.324;2023-07-08T08:03:12;94905.25;;;22.73;nan
79461;BME280;68929;42.666;23.324;2023-07-08T08:05:38;94940.13;;;22.59;nan
79461;BME280;68929;42.666;23.324;2023-07-08T08:08:03;94935.56;;;22.55;nan
79461;BME280;68929;42.666;23.324;2023-07-08T08:10:29;94937.44;;;22.54;nan
79461;BME280;68929;42.666;23.324;2023-07-08T08:12:54;94954.38;;;22.65;nan
79461;BME280;68929;42.666;23.324;2023-07-08T08:15:21;94936.25;;;22.75;nan
79461;BME280;68929;42.666;23.324;2023-07-08T08:17:46;94919.97;;;22.85;nan
79461;BME280;68929;42.666;23.324;2023-07-08T08:20:14;94943.06;;;22.96;nan
79461;BME280;68929;42.666;23.324;2023-07-08T08:22:39;94912.09;;;22.60;nan
79461;BME280;68929;42.666;23.324;2023-07-08T08:25:05;94934.63;;;23.03;nan
79461;BME280;68929;42.666;23.324;2023-07-08T08:27:31;94931.53;;;23.20;nan
79461;BME280;68929;42.666;23.324;2023-07-08T08:29:57;94919.53;;;23.36;nan
79461;BME280;68929;42.666;23.324;2023-07-08T08:32:22;94926.88;;;23.54;nan
79461;BME280;68929;42.666;23.324;2023-07-08T08:34:47;94939.31;;;23.50;nan
79461;BME280;68929;42.666;23.324;2023-07-08T08:37:12;94932.38;;;23.44;nan
79461;BME280;68929;42.666;23.324;2023-07-08T08:39:42;94914.00;;;23.46;nan
79461;BME280;68929;42.666;23.324;2023-07-08T08:44:52;94903.31;;;23.83;nan
79461;BME280;68929;42.666;23.324;2023-07-08T08:47:39;94892.97;;;23.90;nan
79461;BME280;68929;42.666;23.324;2023-07-08T08:50:35;94921.91;;;24.08;nan
79461;BME280;68929;42.666;23.324;2023-07-08T08:53:08;94921.19;;;24.40;nan
79461;BME280;68929;42.666;23.324;2023-07-08T08:55:35;94913.44;;;24.33;nan
79461;BME280;68929;42.666;23.324;2023-07-08T09:00:59;94917.19;;;23.95;nan
79461;BME280;68929;42.666;23.324;2023-07-08T09:03:36;94922.50;;;24.05;nan
79461;BME280;68929;42.666;23.324;2023-07-08T09:06:45;94920.22;;;24.12;nan
79461;BME280;68929;42.666;23.324;2023-07-08T09:11:52;94917.66;;;24.77;nan
79461;BME280;68929;42.666;23.324;2023-07-08T09:14:27;94916.63;;;24.73;nan
79461;BME280;68929;42.666;23.324;2023-07-08T09:19:34;94901.00;;;24.70;nan
79461;BME280;68929;42.666;23.324;2023-07-08T09:22:19;94913.94;;;25.05;nan
79461;BME280;68929;42.666;23.324;2023-07-08T09:27:46;94911.75;;;25.20;nan
79461;BME280;68929;42.666;23.324;2023-07-08T09:30:18;94921.81;;;25.20;nan
79461;BME280;68929;42.666;23.324;2023-07-08T09:32:53;94899.06;;;24.89;nan
79461;BME280;68929;42.666;23.324;2023-07-08T09:35:20;94896.72;;;25.01;nan
79461;BME280;68929;42.666;23.324;2023-07-08T09:37:47;94890.13;;;24.75;nan
79461;BME280;68929;42.666;23.324;2023-07-08T09:40:20;94890.44;;;24.87;nan
79461;BME280;68929;42.666;23.324;2023-07-08T09:42:51;94887.75;;;24.87;nan
79461;BME280;68929;42.666;23.324;2023-07-08T09:45:57;94876.13;;;25.32;nan
79461;BME280;68929;42.666;23.324;2023-07-08T09:48:34;94880.66;;;24.91;nan
79461;BME280;68929;42.666;23.324;2023-07-08T09:51:06;94896.91;;;25.18;nan
79461;BME280;68929;42.666;23.324;2023-07-08T09:53:47;94867.66;;;24.93;nan
79461;BME280;68929;42.666;23.324;2023-07-08T09:56:35;94875.63;;;24.84;nan
79461;BME280;68929;42.666;23.324;2023-07-08T09:59:22;94876.59;;;25.07;nan
79461;BME280;68929;42.666;23.324;2023-07-08T10:01:49;94872.25;;;25.06;nan
79461;BME280;68929;42.666;23.324;2023-07-08T10:04:31;94886.63;;;25.20;nan
79461;BME280;68929;42.666;23.324;2023-07-08T10:07:19;94859.88;;;25.32;nan
79461;BME280;68929;42.666;23.324;2023-07-08T10:09:48;94866.72;;;25.43;nan
79461;BME280;68929;42.666;23.324;2023-07-08T10:12:19;94865.69;;;25.66;nan
79461;BME280;68929;42.666;23.324;2023-07-08T10:15:11;94865.75;;;26.16;nan
79461;BME280;68929;42.666;23.324;2023-07-08T10:17:55;94865.28;;;26.13;nan
79461;BME280;68929;42.666;23.324;2023-07-08T10:20:22;94871.69;;;26.18;nan
79461;BME280;68929;42.666;23.324;2023-07-08T10:23:04;94843.94;;;26.21;nan
79461;BME280;68929;42.666;23.324;2023-07-08T10:25:49;94842.78;;;26.35;nan
79461;BME280;68929;42.666;23.324;2023-07-08T10:31:32;94845.97;;;26.95;nan
79461;BME280;68929;42.666;23.324;2023-07-08T10:37:15;94858.28;;;27.80;nan
79461;BME280;68929;42.666;23.324;2023-07-08T10:43:08;94864.41;;;27.94;nan
79461;BME280;68929;42.666;23.324;2023-07-08T11:00:14;94836.50;;;28.27;nan
79461;BME280;68929;42.666;23.324;2023-07-08T11:05:45;94832.38;;;29.28;nan
79461;BME280;68929;42.666;23.324;2023-07-08T11:08:28;94830.91;;;28.24;nan
79461;BME280;68929;42.666;23.324;2023-07-08T11:11:32;94823.09;;;27.57;nan
79461;BME280;68929;42.666;23.324;2023-07-08T11:14:04;94819.03;;;28.54;nan
79461;BME280;68929;42.666;23.324;2023-07-08T11:16:47;94831.00;;;30.09;nan
79461;BME280;68929;42.666;23.324;2023-07-08T11:19:38;94801.22;;;30.04;nan
79461;BME280;68929;42.666;23.324;2023-07-08T11:22:14;94812.63;;;31.13;nan
79461;BME280;68929;42.666;23.324;2023-07-08T11:24:46;94818.75;;;30.98;nan
79461;BME280;68929;42.666;23.324;2023-07-08T11:27:25;94805.97;;;30.90;nan
79461;BME280;68929;42.666;23.324;2023-07-08T11:30:15;94793.72;;;30.96;nan
79461;BME280;68929;42.666;23.324;2023-07-08T11:32:47;94802.09;;;28.74;nan
79461;BME280;68929;42.666;23.324;2023-07-08T11:35:20;94806.47;;;29.21;nan
79461;BME280;68929;42.666;23.324;2023-07-08T11:37:47;94802.22;;;29.79;nan
79461;BME280;68929;42.666;23.324;2023-07-08T11:40:37;94797.50;;;30.09;nan
79461;BME280;68929;42.666;23.324;2023-07-08T11:43:17;94807.16;;;31.13;nan
79461;BME280;68929;42.666;23.324;2023-07-08T11:45:42;94808.75;;;31.02;nan
79461;BME280;68929;42.666;23.324;2023-07-08T11:48:16;94793.84;;;30.99;nan
79461;BME280;68929;42.666;23.324;2023-07-08T11:50:44;94809.06;;;31.57;nan
79461;BME280;68929;42.666;23.324;2023-07-08T11:53:46;94815.13;;;30.11;nan
79461;BME280;68929;42.666;23.324;2023-07-08T11:59:38;94808.56;;;31.31;nan
79461;BME280;68929;42.666;23.324;2023-07-08T12:02:19;94815.59;;;30.13;nan
79461;BME280;68929;42.666;23.324;2023-07-08T12:05:01;94785.00;;;28.65;nan
79461;BME280;68929;42.666;23.324;2023-07-08T12:07:32;94801.22;;;29.46;nan
79461;BME280;68929;42.666;23.324;2023-07-08T12:11:00;94811.25;;;30.41;nan
79461;BME280;68929;42.666;23.324;2023-07-08T12:13:13;94788.66;;;29.62;nan
79461;BME280;68929;42.666;23.324;2023-07-08T12:15:51;94791.91;;;30.46;nan
79461;BME280;68929;42.666;23.324;2023-07-08T12:18:36;94799.22;;;30.54;nan
79461;BME280;68929;42.666;23.324;2023-07-08T12:21:09;94785.25;;;29.94;nan
79461;BME280;68929;42.666;23.324;2023-07-08T12:23:34;94815.66;;;30.05;nan
79461;BME280;68929;42.666;23.324;2023-07-08T12:26:00;94795.78;;;29.46;nan
79461;BME280;68929;42.666;23.324;2023-07-08T12:28:36;94795.22;;;28.51;nan
79461;BME280;68929;42.666;23.324;2023-07-08T12:31:01;94813.63;;;28.03;nan
79461;BME280;68929;42.666;23.324;2023-07-08T12:33:39;94806.78;;;27.49;nan
79461;BME280;68929;42.666;23.324;2023-07-08T12:36:38;94790.53;;;26.35;nan
79461;BME280;68929;42.666;23.324;2023-07-08T12:39:10;94787.19;;;26.16;nan
79461;BME280;68929;42.666;23.324;2023-07-08T12:41:36;94802.78;;;25.96;nan
79461;BME280;68929;42.666;23.324;2023-07-08T12:44:12;94794.22;;;26.03;nan
79461;BME280;68929;42.666;23.324;2023-07-08T12:47:07;94790.31;;;27.54;nan
79461;BME280;68929;42.666;23.324;2023-07-08T12:49:35;94784.84;;;28.19;nan
79461;BME280;68929;42.666;23.324;2023-07-08T12:52:01;94800.19;;;28.49;nan
79461;BME280;68929;42.666;23.324;2023-07-08T12:54:28;94778.16;;;29.05;nan
79461;BME280;68929;42.666;23.324;2023-07-08T12:56:54;94793.91;;;29.96;nan
79461;BME280;68929;42.666;23.324;2023-07-08T12:59:21;94789.78;;;30.31;nan
79461;BME280;68929;42.666;23.324;2023-07-08T13:01:48;94791.19;;;30.91;nan
79461;BME280;68929;42.666;23.324;2023-07-08T13:04:14;94786.06;;;31.70;nan
79461;BME280;68929;42.666;23.324;2023-07-08T13:06:43;94789.31;;;30.29;nan
79461;BME280;68929;42.666;23.324;2023-07-08T13:09:42;94802.69;;;29.81;nan
79461;BME280;68929;42.666;23.324;2023-07-08T13:12:16;94782.06;;;30.13;nan
79461;BME280;68929;42.666;23.324;2023-07-08T13:14:43;94779.97;;;30.18;nan
79461;BME280;68929;42.666;23.324;2023-07-08T13:17:16;94792.84;;;31.28;nan
79461;BME280;68929;42.666;23.324;2023-07-08T13:19:43;94803.38;;;31.74;nan
79461;BME280;68929;42.666;23.324;2023-07-08T13:22:16;94794.94;;;31.79;nan
79461;BME280;68929;42.666;23.324;2023-07-08T13:24:45;94802.13;;;31.60;nan
79461;BME280;68929;42.666;23.324;2023-07-08T13:27:32;94778.53;;;31.79;nan
79461;BME280;68929;42.666;23.324;2023-07-08T13:30:16;94798.81;;;31.54;nan
79461;BME280;68929;42.666;23.324;2023-07-08T13:32:48;94792.19;;;30.53;nan
79461;BME280;68929;42.666;23.324;2023-07-08T13:35:48;94792.69;;;30.67;nan
79461;BME280;68929;42.666;23.324;2023-07-08T13:38:38;94784.13;;;30.90;nan
79461;BME280;68929;42.666;23.324;2023-07-08T13:41:09;94785.81;;;31.75;nan
79461;BME280;68929;42.666;23.324;2023-07-08T13:43:47;94785.03;;;31.50;nan
79461;BME280;68929;42.666;23.324;2023-07-08T13:46:29;94791.22;;;31.15;nan
79461;BME280;68929;42.666;23.324;2023-07-08T13:49:11;94789.84;;;31.09;nan
79461;BME280;68929;42.666;23.324;2023-07-08T13:51:36;94780.28;;;30.91;nan
79461;BME280;68929;42.666;23.324;2023-07-08T13:54:23;94765.88;;;30.82;nan
79461;BME280;68929;42.666;23.324;2023-07-08T13:56:50;94776.34;;;29.56;nan
79461;BME280;68929;42.666;23.324;2023-07-08T13:59:34;94778.75;;;28.56;nan
79461;BME280;68929;42.666;23.324;2023-07-08T14:01:59;94769.00;;;28.04;nan
79461;BME280;68929;42.666;23.324;2023-07-08T14:04:30;94777.78;;;27.92;nan
79461;BME280;68929;42.666;23.324;2023-07-08T14:06:56;94793.72;;;27.59;nan
79461;BME280;68929;42.666;23.324;2023-07-08T14:09:43;94791.56;;;27.00;nan
79461;BME280;68929;42.666;23.324;2023-07-08T14:12:25;94780.78;;;26.78;nan